• Join FlightAware (Why Join?)
  • Login
  • US Flag 
08:54PM EST


 

Airport Tracker/Info


-or-


 

Live Flight TrackerFlight Track Log ✈ N1767P ✈ 22-Jul-2014 ✈ KILG - 5B2

Flight Track Log - Related Links

Times and Time Zones

All times are in EDT time to prevent confusion due to time zone crossing. See the N1767P flight status page for this flight to view local times or setup timezone preferences in your user account.

Time Position Orientation Groundspeed Altitude Reporting Facility
EDT Latitude Longitude Course Direction KTS MPH feet Rate Location/Type
06:36PM 39.6667 -75.6000 180° South 118 136 500  Level Philadelphia TRACON
06:37PM 39.6500 -75.6000 180° South 105 121 1,000 840 Climbing Philadelphia TRACON
06:38PM 39.6167 -75.6167 201° Southwest 131 151 1,900 900 Climbing Philadelphia TRACON
06:39PM 39.6500 -75.6333 339° North 147 169 2,900 900 Climbing Philadelphia TRACON
06:40PM 39.7000 -75.6500 346° North 141 162 3,800 540 Climbing Philadelphia TRACON
06:41PM 39.7333 -75.6333 21° North 177 204 4,000 60 Climbing Philadelphia TRACON
06:42PM 39.7833 -75.6333 360° North 174 200 4,000  Level Philadelphia TRACON
06:43PM 39.8333 -75.6167 14° North 176 203 4,000  Level Philadelphia TRACON
06:44PM 39.8833 -75.6167 360° North 174 200 4,000  Level Philadelphia TRACON
06:45PM 39.9333 -75.6000 14° North 174 200 4,000  Level Philadelphia TRACON
06:46PM 39.9833 -75.6000 360° North 175 201 4,000  Level Philadelphia TRACON
06:47PM 40.0333 -75.5833 14° North 173 199 4,000  Level Philadelphia TRACON
06:47PM 40.0592 -75.5822 North 173 199 4,000  Level New York Center
06:49PM 40.1139 -75.5722 North 174 200 4,000  Level New York Center
06:50PM 40.1661 -75.5650 North 168 193 4,000  Level New York Center
06:51PM 40.2083 -75.5544 11° North 168 193 4,000  Level New York Center
06:52PM 40.2544 -75.5494 North 170 196 4,000  Level New York Center
06:53PM 40.2986 -75.5389 10° North 170 196 4,000  Level New York Center
06:54PM 40.3467 -75.5314 North 168 193 4,000  Level New York Center
06:55PM 40.4014 -75.5186 10° North 168 193 4,000  Level New York Center
06:56PM 40.4519 -75.5086 North 170 196 4,000 180 Level New York Center
06:57PM 40.4981 -75.5036 North 171 197 4,500 540 Climbing New York Center
06:58PM 40.5336 -75.4950 10° North 162 186 5,000 240 Climbing New York Center
06:59PM 40.5947 -75.4828 North 178 205 5,000  Level New York Center
07:00PM 40.6450 -75.4728 North 177 204 5,000  Level New York Center
07:01PM 40.6767 -75.4667 North 176 203 5,000  Level New York Center
07:02PM 40.7292 -75.4511 13° North 177 204 5,000  Level New York Center
07:03PM 40.7667 -75.4042 43° Northeast 179 206 5,000  Level New York Center
07:04PM 40.7994 -75.3653 42° Northeast 179 206 5,000  Level New York Center
07:05PM 40.8411 -75.3106 45° Northeast 178 205 5,000  Level New York Center
07:06PM 40.8781 -75.2664 42° Northeast 179 206 5,000  Level New York Center
07:07PM 40.9153 -75.2222 42° Northeast 180 207 5,000 -60 Level New York Center
07:08PM 40.9458 -75.1831 44° Northeast 180 207 4,900  Descending New York Center
07:09PM 40.9831 -75.1331 45° Northeast 181 208 5,000  Climbing New York Center
07:10PM 41.0203 -75.0889 42° Northeast 180 207 5,000  Level New York Center
07:11PM 41.0592 -75.0444 41° Northeast 180 207 5,000  Level New York Center
07:12PM 41.0964 -74.9944 45° Northeast 181 208 5,000  Level New York Center
07:14PM 41.1667 -74.9000 45° Northeast 181 208 5,100  Climbing New York TRACON
07:15PM 41.2000 -74.8667 37° Northeast 183 211 5,100  Level New York TRACON
07:16PM 41.2333 -74.8167 48° Northeast 184 212 5,100  Level New York TRACON
07:17PM 41.2667 -74.7667 48° Northeast 184 212 5,100  Level New York TRACON
07:18PM 41.3167 -74.7167 37° Northeast 182 209 5,100  Level New York TRACON
07:19PM 41.3500 -74.6667 48° Northeast 179 206 5,100  Level New York TRACON
07:20PM 41.3833 -74.6333 37° Northeast 178 205 5,100  Level New York TRACON
07:21PM 41.4167 -74.5833 48° Northeast 178 205 5,100  Level New York TRACON
07:22PM 41.4500 -74.5333 48° Northeast 180 207 5,100  Level New York TRACON
07:23PM 41.4833 -74.4833 48° Northeast 181 208 5,100  Level New York TRACON
07:24PM 41.5167 -74.4167 56° Northeast 180 207 5,100  Level New York TRACON
07:25PM 41.5500 -74.3667 48° Northeast 181 208 5,100  Level New York TRACON
07:26PM 41.5833 -74.3167 48° Northeast 180 207 5,100  Level New York TRACON
07:27PM 41.6000 -74.2667 66° East 179 206 5,100 -120 Level New York TRACON
07:27PM 41.6225 -74.2469 33° Northeast 180 207 5,000 -120 Descending Boston Center
07:28PM 41.6561 -74.1908 51° Northeast 180 207 5,000  Level Boston Center
07:29PM 41.6875 -74.1386 51° Northeast 180 207 5,000  Level Boston Center
07:30PM 41.7186 -74.0867 51° Northeast 179 206 5,000  Level Boston Center
07:31PM 41.7536 -74.0300 50° Northeast 180 207 5,000  Level Boston Center
07:32PM 41.7844 -73.9786 51° Northeast 180 207 5,000  Level Boston Center
07:33PM 41.8158 -73.9272 51° Northeast 180 207 5,000  Level Boston Center
07:34PM 41.8472 -73.8744 51° Northeast 180 207 5,000  Level Boston Center
07:35PM 41.8817 -73.8203 49° Northeast 179 206 5,000  Level Boston Center
07:37PM 41.9292 -73.8194 North 172 198 5,000  Level Boston Center
07:37PM 41.9767 -73.8169 North 172 198 5,000  Level Boston Center
07:38PM 42.0142 -73.8161 North 170 196 5,000  Level Boston Center
07:39PM 42.0275 -73.8167 358° North 171 197 5,000  Level Boston Center
07:39PM 42.0614 -73.8175 359° North 168 193 5,000  Level Boston Center
07:40PM 42.0725 -73.8144 12° North 169 194 5,000  Level Boston Center
07:41PM 42.1197 -73.8142 360° North 168 193 5,000  Level Boston Center
07:41PM 42.1522 -73.8133 North 170 196 5,000  Level Boston Center
07:42PM 42.1706 -73.8131 North 169 194 5,000  Level Boston Center
07:42PM 42.1994 -73.8147 358° North 169 194 5,000  Level Boston Center
07:43PM 42.2181 -73.8125 North 169 194 5,000  Level Boston Center
07:43PM 42.2408 -73.8111 North 168 193 5,000  Level Boston Center
07:44PM 42.2644 -73.8125 358° North 169 194 5,000  Level Boston Center
07:44PM 42.2878 -73.8125 360° North 167 192 5,000  Level Boston Center
07:45PM 42.3144 -73.8111 North 168 193 5,000  Level Boston Center
07:45PM 42.3353 -73.8111 360° North 168 193 5,000  Level Boston Center
07:46PM 42.3611 -73.8097 North 168 193 5,000  Level Boston Center
07:46PM 42.3808 -73.8089 North 168 193 5,000  Level Boston Center
07:47PM 42.4075 -73.8097 359° North 168 193 5,000  Level Boston Center
07:47PM 42.4278 -73.8103 359° North 169 194 5,000  Level Boston Center
07:48PM 42.4589 -73.8086 North 168 193 5,000  Level Boston Center
07:48PM 42.4797 -73.8075 North 172 198 5,000  Level Boston Center
07:49PM 42.5072 -73.8078 360° North 170 196 5,000  Level Boston Center
07:49PM 42.5314 -73.8075 360° North 174 200 5,000  Level Boston Center
07:50PM 42.5553 -73.8067 North 171 197 5,000  Level Boston Center
07:50PM 42.5789 -73.8061 North 173 199 5,000  Level Boston Center
07:51PM 42.6028 -73.8061 360° North 171 197 5,000  Level Boston Center
07:51PM 42.6239 -73.8067 359° North 171 197 5,000  Level Boston Center
07:52PM 42.6539 -73.8050 North 171 197 5,000  Level Boston Center
07:52PM 42.6714 -73.8053 359° North 171 197 5,000  Level Boston Center
07:53PM 42.7017 -73.8039 North 171 197 5,000  Level Boston Center
07:53PM 42.7256 -73.8031 North 174 200 5,000  Level Boston Center
07:54PM 42.7533 -73.8014 North 174 200 5,000 -300 Level Boston Center
07:54PM 42.7761 -73.8086 347° North 186 214 4,700 -720 Descending Boston Center
07:55PM 42.8036 -73.8142 352° North 184 212 4,300 -720 Descending Boston Center
07:55PM 42.8275 -73.8203 349° North 190 219 4,000 -300 Descending Boston Center
07:56PM 42.8550 -73.8236 355° North 185 213 4,000  Level Boston Center
07:56PM 42.8797 -73.8292 351° North 179 206 4,000  Level Boston Center
07:57PM 42.9056 -73.8336 353° North 176 203 4,000 -360 Level Boston Center
07:58PM 42.9317 -73.8381 353° North 172 198 3,600 -720 Descending Boston Center
07:58PM 42.9547 -73.8436 350° North 176 203 3,300 -840 Descending Boston Center
07:59PM 42.9811 -73.8489 352° North 180 207 2,800 -960 Descending Boston Center